Latest Weather Observations for Dubbo

IDN60801

Issued at 11:02 pm EST Saturday 18 April 2015 (issued every 30 minutes, with the page automatically refreshed every 10 minutes)

About weather observations | Map of weather stations | Latest weather observations for NSW | Other Formats
Station Details ID: 065070 Name: DUBBO AIRPORT AWS Lat: -32.22 Lon: 148.58 Height: 284.0 m
Data from the previous 72 hours. | See also: Recent months at Dubbo
Date/Time
EST
Temp
°C
App
Temp
°C
Dew
Point
Rel
Hum
%
Delta-T
°C
Wind Press
QNH
hPa
Press
MSL
hPa
Rain
since 9 am
mm
Dir
 
Spd
km/h
Gust
km/h
Spd
kts
Gust
kts
18/11:00pm 17.1 19.1 16.9 99 0.1 NW 2 6 1 3 1018.3 1017.7 -
18/10:30pm 17.2 19.6 17.0 99 0.1 CALM 0 0 0 0 1018.4 1017.8 11.8
18/10:00pm 17.2 18.3 17.2 100 0.0 NNW 7 9 4 5 1018.5 1017.9 11.8
18/09:30pm 17.1 19.0 16.6 97 0.3 NNW 2 7 1 4 1018.4 1017.8 11.4
18/09:00pm 17.2 17.7 16.6 96 0.4 NW 9 11 5 6 1018.3 1017.7 11.2
18/08:30pm 17.2 17.0 16.7 97 0.3 W 13 17 7 9 1017.7 1017.0 10.8
18/08:00pm 17.5 18.3 17.2 98 0.2 NW 9 11 5 6 1017.5 1016.8 10.6
18/07:30pm 17.4 17.2 16.6 95 0.5 WNW 13 17 7 9 1017.4 1016.7 10.6
18/07:00pm 17.6 17.5 17.0 96 0.4 NW 13 19 7 10 1017.4 1016.7 10.2
18/06:53pm 17.6 17.2 17.1 97 0.3 NW 15 20 8 11 1017.1 1016.4 9.8
18/06:35pm 17.9 18.6 17.9 100 0.0 NW 11 15 6 8 1017.1 1016.4 9.0
18/06:30pm 18.0 18.7 18.0 100 0.0 NNW 11 15 6 8 1017.1 1016.4 7.8
18/06:00pm 17.9 18.9 17.7 99 0.1 NNW 9 11 5 6 1016.3 1015.6 7.0
18/05:30pm 17.6 16.5 17.3 98 0.2 WSW 19 24 10 13 1015.6 1015.0 6.8
18/05:22pm 17.6 15.5 17.1 97 0.3 W 24 32 13 17 1015.6 1015.0 6.6
18/05:03pm 17.8 12.3 16.7 93 0.7 W 41 59 22 32 1015.4 1014.8 5.0
18/05:00pm 18.0 11.5 16.7 92 0.8 W 46 61 25 33 1015.3 1014.7 3.2
18/04:57pm 18.4 12.6 16.9 91 0.9 W 43 61 23 33 1015.0 1014.4 1.8
18/04:51pm 19.7 17.1 16.9 84 1.7 WNW 26 56 14 30 1014.8 1014.1 0.6
18/04:30pm 21.7 20.5 17.1 75 2.9 NNW 19 28 10 15 1014.5 1013.8 0.0
18/04:00pm 24.5 20.0 15.4 57 5.5 N 33 48 18 26 1014.3 1013.6 0.0
18/03:30pm 24.9 19.5 15.0 54 6.0 N 37 48 20 26 1014.5 1013.8 0.0
18/03:00pm 25.8 20.5 15.2 52 6.5 N 37 54 20 29 1014.7 1014.0 0.0
18/02:30pm 25.4 20.3 14.8 52 6.4 N 35 50 19 27 1015.1 1014.5 0.0
18/02:19pm 25.3 20.1 14.4 50 6.6 N 35 52 19 28 1015.2 1014.6 0.0
18/02:09pm 25.5 20.1 14.9 52 6.4 N 37 46 20 25 1015.3 1014.7 0.0
18/02:00pm 25.5 20.4 14.9 52 6.4 N 35 48 19 26 1015.6 1015.0 0.0
18/01:30pm 24.7 18.6 14.2 52 6.3 N 39 48 21 26 1015.8 1015.2 0.0
18/01:00pm 25.3 19.8 14.7 51 6.4 N 37 48 20 26 1016.3 1015.6 0.0
18/12:30pm 25.6 20.5 14.7 51 6.6 N 35 48 19 26 1016.6 1015.9 0.0
18/12:00pm 24.4 19.1 14.2 53 6.1 N 35 43 19 23 1017.2 1016.5 0.0
18/11:30am 24.2 18.9 14.3 54 5.9 N 35 43 19 23 1017.8 1017.1 0.0
18/11:00am 25.0 19.1 14.8 53 6.2 N 39 50 21 27 1018.3 1017.7 0.0
18/10:30am 24.4 18.9 14.8 55 5.8 N 37 52 20 28 1018.6 1018.0 0.0
18/10:00am 23.0 17.7 14.3 58 5.2 N 35 48 19 26 1019.0 1018.4 0.0
18/09:43am 23.0 17.3 14.3 58 5.2 N 37 48 20 26 1019.3 1018.7 0.0
18/09:30am 23.2 17.7 14.7 58 5.1 N 37 50 20 27 1019.3 1018.7 0.0
18/09:25am 23.0 17.3 14.3 58 5.2 N 37 50 20 27 1019.4 1018.8 0.0
18/09:00am 23.3 18.6 14.8 59 5.1 N 33 46 18 25 1019.2 1018.6 0.0
18/08:30am 23.1 18.5 15.2 61 4.8 N 33 48 18 26 1019.0 1018.4 0.0
18/08:00am 22.2 17.5 14.8 63 4.4 N 33 48 18 26 1018.9 1018.3 0.0
18/07:00am 18.7 17.7 14.6 77 2.4 NE 13 19 7 10 1018.7 1018.1 0.0
18/06:30am 17.8 16.4 14.5 81 1.9 NE 15 19 8 10 1018.4 1017.8 0.0
18/06:00am 17.4 16.4 14.5 83 1.7 NE 13 17 7 9 1018.3 1017.7 0.0
18/05:30am 16.6 15.9 14.2 86 1.4 ENE 11 15 6 8 1018.3 1017.7 0.0
18/05:00am 17.0 16.0 14.6 86 1.4 NE 13 15 7 8 1018.2 1017.6 0.0
18/04:30am 17.0 16.0 14.6 86 1.4 NE 13 15 7 8 1018.1 1017.5 0.0
18/04:00am 17.0 16.3 14.3 84 1.6 ENE 11 13 6 7 1017.9 1017.3 0.0
18/03:30am 18.0 17.3 15.4 85 1.5 ENE 13 17 7 9 1018.0 1017.4 0.0
18/03:00am 18.7 18.0 16.3 86 1.4 NE 15 19 8 10 1018.1 1017.5 0.0
18/02:30am 18.8 18.1 16.4 86 1.5 E 15 19 8 10 1018.0 1017.4 0.0
18/02:00am 19.1 18.5 16.7 86 1.5 ENE 15 19 8 10 1018.4 1017.8 0.0
18/01:30am 19.1 18.1 16.7 86 1.5 ENE 17 20 9 11 1018.7 1018.1 0.0
18/01:00am 19.3 18.0 16.7 85 1.6 E 19 26 10 14 1018.7 1018.1 0.0
18/12:30am 19.3 18.0 16.7 85 1.6 E 19 24 10 13 1018.8 1018.2 0.0
18/12:00am 18.8 17.7 16.4 86 1.5 E 17 20 9 11 1019.1 1018.5 0.0
 
Date/Time
EST
Temp
°C
App
Temp
°C
Dew
Point
Rel
Hum
%
Delta-T
°C
Wind Press
QNH
hPa
Press
MSL
hPa
Rain
since 9 am
mm
Dir
 
Spd
km/h
Gust
km/h
Spd
kts
Gust
kts
17/11:30pm 18.6 17.6 15.7 83 1.7 E 15 17 8 9 1019.4 1018.8 0.0
17/11:00pm 19.7 19.2 15.8 78 2.3 E 13 17 7 9 1019.7 1019.0 0.0
17/10:30pm 20.6 19.8 16.2 76 2.7 E 15 17 8 9 1019.7 1019.0 0.0
17/10:00pm 21.1 20.5 15.6 71 3.3 E 13 15 7 8 1019.9 1019.2 0.0
17/09:30pm 21.4 19.7 14.8 66 3.9 E 17 20 9 11 1019.5 1018.9 0.0
17/09:00pm 20.1 18.1 12.6 62 4.3 E 15 20 8 11 1019.3 1018.7 0.0
17/08:30pm 21.9 21.4 12.5 55 5.4 NE 7 9 4 5 1019.2 1018.6 0.0
17/08:00pm 22.3 20.6 12.5 53 5.6 NNE 13 13 7 7 1019.1 1018.5 0.0
17/07:30pm 23.4 21.9 13.0 52 6.1 NNE 13 15 7 8 1018.7 1018.1 0.0
17/07:00pm 23.2 22.0 12.8 52 6.0 NE 11 13 6 7 1018.7 1018.1 0.0
17/06:30pm 23.5 22.2 12.5 50 6.4 NNE 11 13 6 7 1018.5 1017.9 0.0
17/06:00pm 24.7 22.7 11.6 44 7.5 N 13 15 7 8 1018.4 1017.8 0.0
17/05:30pm 26.7 23.7 12.0 40 8.6 N 19 22 10 12 1018.2 1017.6 0.0
17/05:00pm 27.2 24.5 11.7 38 9.0 N 17 22 9 12 1018.0 1017.4 0.0
17/04:30pm 27.8 24.4 11.4 36 9.5 N 20 28 11 15 1018.1 1017.5 0.0
17/04:00pm 28.4 24.6 11.0 34 10.0 N 22 30 12 16 1018.1 1017.5 0.0
17/03:30pm 29.0 25.8 11.1 33 10.4 NNW 19 26 10 14 1018.2 1017.6 0.0
17/03:00pm 30.2 26.9 11.7 32 10.9 N 20 32 11 17 1018.5 1017.9 0.0
17/02:30pm 29.5 26.6 12.4 35 10.1 NNW 19 28 10 15 1018.8 1018.2 0.0
17/02:00pm 28.2 25.2 12.1 37 9.4 N 19 24 10 13 1019.2 1018.6 0.0
17/01:30pm 29.1 26.1 12.5 36 9.8 N 20 28 11 15 1019.5 1018.9 0.0
17/01:00pm 28.6 25.9 12.9 38 9.3 NNW 19 24 10 13 1020.2 1019.5 0.0
17/12:30pm 28.2 25.9 12.9 38 9.1 NNW 17 26 9 14 1021.0 1020.4 0.0
17/12:00pm 27.8 25.7 13.7 42 8.5 NNW 17 26 9 14 1021.8 1021.2 0.0
17/11:30am 26.7 23.7 12.4 41 8.4 N 20 30 11 16 1022.3 1021.7 0.0
17/11:00am 26.9 24.6 12.9 42 8.3 NNW 17 26 9 14 1022.8 1022.2 0.0
17/10:30am 26.4 23.8 13.2 44 7.8 N 19 30 10 16 1023.2 1022.6 0.0
17/10:00am 25.3 24.0 13.8 49 6.8 NNE 13 20 7 11 1023.6 1022.9 0.0
17/09:30am 25.2 24.4 14.0 49 6.7 NE 11 15 6 8 1023.7 1023.0 0.0
17/09:00am 24.5 23.9 14.6 54 5.9 ENE 11 15 6 8 1023.8 1023.1 0.2
17/08:30am 22.7 22.2 15.0 61 4.6 E 11 15 6 8 1023.8 1023.1 0.2
17/08:00am 21.3 21.4 15.6 70 3.4 ESE 9 13 5 7 1023.6 1022.9 0.2
17/07:30am 20.1 20.7 15.9 77 2.5 SSE 7 11 4 6 1023.1 1022.5 0.2
17/07:00am 19.7 19.7 16.2 80 2.1 SSE 11 15 6 8 1022.7 1022.1 0.2
17/06:30am 18.6 18.4 15.8 84 1.7 SE 11 13 6 7 1022.3 1021.7 0.2
17/06:00am 17.9 18.3 15.2 84 1.6 SE 7 9 4 5 1022.1 1021.5 0.2
17/05:30am 18.7 19.6 15.2 80 2.1 SSW 4 7 2 4 1021.9 1021.3 0.2
17/05:00am 18.9 19.1 14.8 77 2.4 E 7 11 4 6 1021.8 1021.2 0.2
17/04:30am 19.5 19.4 15.0 75 2.7 E 9 13 5 7 1021.6 1021.0 0.2
17/04:00am 19.8 19.3 15.0 74 2.8 E 11 15 6 8 1021.4 1020.8 0.2
17/03:40am 19.5 19.0 15.0 75 2.7 E 11 13 6 7 1021.1 1020.5 0.2
17/03:30am 19.5 19.1 15.2 76 2.6 ENE 11 15 6 8 1021.0 1020.4 0.2
17/03:22am 19.5 19.0 15.0 75 2.7 E 11 13 6 7 1021.1 1020.5 0.2
17/03:00am 20.1 19.4 15.3 74 2.9 ESE 13 15 7 8 1021.1 1020.5 0.2
17/02:30am 19.2 19.0 14.7 75 2.7 ESE 9 13 5 7 1021.7 1021.1 0.2
17/02:00am 20.4 20.1 15.4 73 3.0 ESE 11 15 6 8 1021.8 1021.2 0.2
17/01:30am 20.5 20.1 15.1 71 3.2 ESE 11 13 6 7 1022.0 1021.4 0.2
17/01:00am 21.5 21.1 15.1 67 3.8 S 11 13 6 7 1022.5 1021.9 0.2
17/12:30am 22.1 21.6 15.0 64 4.3 SSW 11 17 6 9 1022.8 1022.2 0.2
17/12:00am 22.2 21.0 15.1 64 4.3 SSW 15 20 8 11 1022.7 1022.1 0.2
 
Date/Time
EST
Temp
°C
App
Temp
°C
Dew
Point
Rel
Hum
%
Delta-T
°C
Wind Press
QNH
hPa
Press
MSL
hPa
Rain
since 9 am
mm
Dir
 
Spd
km/h
Gust
km/h
Spd
kts
Gust
kts
16/11:41pm 21.8 20.4 15.6 68 3.8 SW 17 20 9 11 1022.7 1022.1 0.0
16/11:30pm 21.6 20.0 15.9 70 3.5 SW 19 22 10 12 1022.7 1022.1 0.0
16/11:22pm 21.0 19.3 16.2 74 2.9 SW 20 28 11 15 1022.7 1022.1 0.0
16/11:00pm 22.2 19.9 15.8 67 3.9 WSW 22 30 12 16 1022.9 1022.3 0.0
16/10:30pm 23.9 21.8 14.6 56 5.6 WNW 19 26 10 14 1022.9 1022.3 0.0
16/10:00pm 24.0 22.0 13.8 53 6.0 W 17 24 9 13 1022.9 1022.3 0.0
16/09:30pm 22.4 21.3 14.3 60 4.8 NW 13 33 7 18 1022.9 1022.3 0.0
16/09:00pm 22.2 21.8 13.0 56 5.3 NE 7 9 4 5 1022.3 1021.7 0.0
16/08:55pm 22.1 21.7 12.9 56 5.3 NE 7 9 4 5 1022.2 1021.6 0.0
16/08:42pm 21.9 21.0 12.7 56 5.3 NE 9 11 5 6 1022.1 1021.5 0.0
16/08:30pm 22.3 21.6 13.1 56 5.4 NE 9 11 5 6 1022.1 1021.5 0.0
16/08:18pm 22.2 21.3 12.7 55 5.5 NE 9 11 5 6 1022.0 1021.4 0.0
16/08:00pm 22.6 21.8 12.8 54 5.7 NE 9 11 5 6 1021.8 1021.2 0.0
16/07:48pm 22.7 21.9 12.9 54 5.7 NE 9 11 5 6 1021.8 1021.2 0.0
16/07:30pm 23.0 22.6 12.9 53 5.9 NE 7 9 4 5 1021.8 1021.2 0.0
16/07:00pm 23.8 23.0 12.8 50 6.4 NE 9 9 5 5 1021.4 1020.8 0.0
16/06:30pm 24.0 23.6 12.3 48 6.8 NNE 6 7 3 4 1021.1 1020.5 0.0
16/06:24pm 24.0 23.3 12.0 47 6.9 N 7 9 4 5 1021.0 1020.4 0.0
16/06:13pm 24.8 24.1 12.1 45 7.3 N 7 9 4 5 1020.9 1020.2 0.0
16/06:00pm 25.1 24.6 12.0 44 7.6 N 6 7 3 4 1020.8 1020.1 0.0
16/05:30pm 27.5 27.0 11.9 38 9.1 N 6 7 3 4 1020.7 1020.0 0.0
16/05:00pm 29.0 27.2 12.0 35 10.0 NNW 13 19 7 10 1020.7 1020.0 0.0
16/04:30pm 30.6 28.5 12.5 33 10.8 NW 15 24 8 13 1020.7 1020.0 0.0
16/04:00pm 30.3 27.6 11.8 32 10.9 NW 17 22 9 12 1020.8 1020.1 0.0
16/03:30pm 31.1 28.7 12.5 32 11.1 WNW 17 22 9 12 1021.1 1020.5 0.0
16/03:00pm 31.2 29.3 13.0 33 10.9 WNW 15 24 8 13 1021.2 1020.6 0.0
16/02:30pm 30.6 28.8 13.4 35 10.4 W 15 28 8 15 1021.5 1020.9 0.0
16/02:00pm 30.5 27.1 12.4 33 10.7 NW 22 30 12 16 1021.8 1021.2 0.0
16/01:30pm 30.3 28.6 13.6 36 10.1 NW 15 28 8 15 1022.2 1021.6 0.0
16/01:00pm 30.4 27.2 13.2 35 10.3 W 22 32 12 17 1022.6 1022.0 0.0
16/12:30pm 29.4 26.7 12.8 36 9.9 NW 19 32 10 17 1023.1 1022.5 0.0
16/12:00pm 29.1 24.6 12.5 36 9.8 NW 28 41 15 22 1023.7 1023.0 0.0
16/11:30am 28.9 25.7 13.2 38 9.4 NNW 22 33 12 18 1024.3 1023.7 0.0
16/11:00am 28.3 24.8 13.4 40 8.9 NW 24 37 13 20 1024.7 1024.1 0.0
16/10:30am 27.7 23.7 12.9 40 8.8 NW 26 35 14 19 1024.9 1024.3 0.0
16/10:00am 27.1 23.4 13.8 44 8.0 NW 26 33 14 18 1025.2 1024.6 0.0
16/09:30am 24.9 23.9 14.7 53 6.2 NW 13 17 7 9 1025.5 1024.9 0.0
16/09:00am 23.0 22.6 14.0 57 5.3 NW 9 13 5 7 1025.6 1025.0 0.0
16/08:30am 21.2 21.4 14.1 64 4.2 ESE 6 7 3 4 1025.6 1025.0 0.0
16/08:00am 19.8 19.4 14.2 70 3.3 E 9 11 5 6 1025.1 1024.5 0.0
16/07:30am 17.9 17.7 14.6 81 1.9 SE 9 9 5 5 1024.9 1024.3 0.0
16/07:00am 15.1 14.4 13.1 88 1.1 SE 9 11 5 6 1024.7 1024.1 0.0
16/06:30am 14.2 12.8 12.1 87 1.2 SE 11 11 6 6 1024.5 1023.9 0.0
16/06:00am 15.1 13.9 12.8 86 1.3 SE 11 13 6 7 1024.2 1023.6 0.0
16/05:30am 14.7 13.6 12.0 84 1.5 ESE 9 11 5 6 1023.9 1023.2 0.0
16/05:00am 14.8 13.3 11.9 83 1.6 E 11 13 6 7 1023.7 1023.0 0.0
16/04:30am 15.9 15.0 12.6 81 1.8 ENE 9 11 5 6 1023.5 1022.8 0.0
16/04:00am 16.1 15.4 12.1 77 2.2 ENE 7 9 4 5 1023.1 1022.5 0.0
16/03:30am 17.0 15.3 13.5 80 2.0 ENE 15 19 8 10 1022.9 1022.3 0.0
16/03:00am 16.3 14.4 13.0 81 1.9 E 15 17 8 9 1023.4 1022.7 0.0
16/02:30am 17.0 15.8 12.7 76 2.4 ENE 11 13 6 7 1023.6 1022.9 0.0
16/02:00am 17.6 17.6 12.5 72 2.9 ENE 4 9 2 5 1023.8 1023.1 0.0
16/01:41am 18.4 17.9 12.8 70 3.2 NE 7 9 4 5 1023.6 1022.9 0.0
16/01:30am 18.6 18.2 13.0 70 3.2 NE 7 9 4 5 1023.6 1022.9 0.0
16/01:22am 18.7 18.0 13.3 71 3.1 NE 9 11 5 6 1023.6 1022.9 0.0
16/01:00am 18.4 17.0 13.3 72 2.9 NE 13 15 7 8 1023.6 1022.9 0.0
16/12:30am 18.7 16.8 12.9 69 3.3 NE 15 17 8 9 1023.8 1023.1 0.0
16/12:00am 20.0 19.7 13.2 65 3.9 N 7 11 4 6 1024.0 1023.4 0.0
 
Date/Time
EST
Temp
°C
App
Temp
°C
Dew
Point
Rel
Hum
%
Delta-T
°C
Wind Press
QNH
hPa
Press
MSL
hPa
Rain
since 9 am
mm
Dir
 
Spd
km/h
Gust
km/h
Spd
kts
Gust
kts
15/11:30pm 20.4 19.9 13.8 66 3.9 NNE 9 13 5 7 1024.1 1023.5 0.0

Other Formats:

Comma delimited format used in spreadsheet applications
http://www.bom.gov.au/fwo/IDN60801/IDN60801.95719.axf

JavaScript Object Notation format (JSON) in row-major order
http://www.bom.gov.au/fwo/IDN60801/IDN60801.95719.json